createdAt,value
2019-04-06T00:02:23.115Z,11.25
2019-04-06T00:04:52.233Z,11.19
2019-04-06T00:07:24.538Z,11.21
2019-04-06T00:10:08.688Z,11.21
2019-04-06T00:12:37.786Z,11.16
2019-04-06T00:18:04.646Z,11.04
2019-04-06T00:20:39.572Z,11.04
2019-04-06T00:23:10.322Z,10.99
2019-04-06T00:25:44.249Z,10.97
2019-04-06T00:28:13.356Z,10.95
2019-04-06T00:31:07.664Z,10.93
2019-04-06T00:33:54.599Z,10.90
2019-04-06T00:39:24.397Z,10.82
2019-04-06T00:41:53.462Z,10.80
2019-04-06T00:44:23.883Z,10.77
2019-04-06T00:46:54.072Z,10.74
2019-04-06T00:49:23.409Z,10.74
2019-04-06T00:51:52.820Z,10.72
2019-04-06T00:54:22.636Z,10.66
2019-04-06T00:56:51.736Z,10.65
2019-04-06T01:02:07.144Z,10.65
2019-04-06T01:04:36.264Z,10.65
2019-04-06T01:07:55.080Z,10.65
2019-04-06T01:10:29.244Z,10.67
2019-04-06T01:12:12.874Z,10.65
2019-04-06T01:14:54.209Z,10.64
2019-04-06T01:20:10.692Z,10.61
2019-04-06T01:22:39.800Z,10.61
2019-04-06T01:25:16.896Z,10.61
2019-04-06T01:27:45.980Z,10.57
2019-04-06T01:30:51.201Z,10.59
2019-04-06T01:33:23.025Z,10.58
2019-04-06T01:35:55.016Z,10.57
2019-04-06T01:38:25.225Z,10.48
2019-04-06T01:41:03.193Z,10.55
2019-04-06T01:43:42.799Z,10.53
2019-04-06T01:46:11.904Z,10.49
2019-04-06T01:48:43.888Z,10.50
2019-04-06T01:51:15.484Z,10.46
2019-04-06T01:53:45.185Z,10.44
2019-04-06T01:56:18.638Z,10.43
2019-04-06T01:58:46.541Z,10.43
2019-04-06T02:04:12.693Z,10.37
2019-04-06T02:06:44.101Z,10.31
2019-04-06T02:09:13.172Z,10.27
2019-04-06T02:14:52.126Z,10.24
2019-04-06T02:15:01.296Z,10.25
2019-04-06T02:16:52.841Z,10.20
2019-04-06T02:19:33.404Z,10.16
2019-04-06T02:22:00.034Z,10.15
2019-04-06T02:24:31.478Z,10.12
2019-04-06T02:27:00.569Z,10.12
2019-04-06T02:29:40.251Z,10.06
2019-04-06T02:32:39.622Z,10.05
2019-04-06T02:35:25.287Z,9.94
2019-04-06T02:38:01.175Z,9.92
2019-04-06T02:40:44.455Z,9.92
2019-04-06T02:43:30.801Z,9.93
2019-04-06T02:45:59.907Z,9.88
2019-04-06T02:48:32.251Z,9.84
2019-04-06T02:51:01.324Z,9.68
2019-04-06T02:53:30.419Z,9.72
2019-04-06T02:56:02.912Z,9.74
2019-04-06T02:58:31.971Z,9.75
2019-04-06T03:01:04.253Z,9.73
2019-04-06T03:03:36.699Z,9.66
2019-04-06T03:06:17.955Z,9.63
2019-04-06T03:09:11.642Z,9.59
2019-04-06T03:11:23.964Z,9.57
2019-04-06T03:13:53.561Z,9.57
2019-04-06T03:16:36.488Z,9.55
2019-04-06T03:19:05.599Z,9.55
2019-04-06T03:21:36.582Z,9.46
2019-04-06T03:24:10.850Z,9.36
2019-04-06T03:26:39.994Z,9.37
2019-04-06T03:29:23.974Z,9.37
2019-04-06T03:32:08.163Z,9.37
2019-04-06T03:34:37.248Z,9.28
2019-04-06T03:37:07.799Z,9.24
2019-04-06T03:39:36.869Z,8.85
2019-04-06T03:42:10.624Z,8.80
2019-04-06T03:44:43.121Z,8.86
2019-04-06T03:47:15.953Z,9.05
2019-04-06T03:49:47.539Z,8.99
2019-04-06T03:52:17.770Z,9.08
2019-04-06T03:54:47.324Z,9.05
2019-04-06T03:57:17.863Z,8.80
2019-04-06T03:59:53.995Z,8.74
2019-04-06T04:02:23.459Z,8.41
2019-04-06T04:04:52.916Z,8.51
2019-04-06T04:07:24.846Z,8.69
2019-04-06T04:09:55.481Z,8.73
2019-04-06T04:12:26.009Z,8.79
2019-04-06T04:14:55.088Z,8.44
2019-04-06T04:17:27.420Z,8.63
2019-04-06T04:19:59.634Z,8.60
2019-04-06T04:22:30.860Z,8.22
2019-04-06T04:25:00.262Z,8.48
2019-04-06T04:28:04.646Z,8.44
2019-04-06T04:30:34.690Z,8.07
2019-04-06T04:33:08.773Z,8.23
2019-04-06T04:35:39.646Z,7.65
2019-04-06T04:38:08.747Z,7.34
2019-04-06T04:40:38.272Z,7.74
2019-04-06T04:43:09.130Z,7.98
2019-04-06T04:45:38.201Z,8.03
2019-04-06T04:48:09.371Z,7.93
2019-04-06T04:50:40.268Z,7.74
2019-04-06T04:53:09.343Z,7.55
2019-04-06T04:55:38.897Z,7.56
2019-04-06T04:58:09.831Z,7.21
2019-04-06T05:00:38.892Z,7.55
2019-04-06T05:03:09.715Z,7.50
2019-04-06T05:05:40.569Z,7.46
2019-04-06T05:08:09.647Z,6.82
2019-04-06T05:10:40.462Z,7.34
2019-04-06T05:13:09.983Z,7.66
2019-04-06T05:16:09.341Z,7.48
2019-04-06T05:18:39.891Z,7.55
2019-04-06T05:21:08.965Z,7.73
2019-04-06T05:23:38.061Z,7.87
2019-04-06T05:26:09.326Z,8.01
2019-04-06T05:28:38.848Z,8.08
2019-04-06T05:31:07.920Z,8.22
2019-04-06T05:33:37.732Z,8.32
2019-04-06T05:36:06.907Z,8.34
2019-04-06T05:38:38.182Z,8.44
2019-04-06T05:41:09.684Z,8.62
2019-04-06T05:43:38.957Z,8.71
2019-04-06T05:46:08.842Z,8.60
2019-04-06T05:48:41.967Z,8.76
2019-04-06T05:51:12.512Z,8.91
2019-04-06T05:53:43.112Z,8.80
2019-04-06T05:56:12.451Z,8.97
2019-04-06T05:58:44.345Z,8.90
2019-04-06T06:01:14.050Z,8.98
2019-04-06T06:03:43.286Z,9.25
2019-04-06T06:06:13.536Z,9.37
2019-04-06T06:08:42.625Z,9.34
2019-04-06T06:11:14.795Z,9.47
2019-04-06T06:13:45.044Z,9.45
2019-04-06T06:16:16.325Z,9.35
2019-04-06T06:18:45.644Z,9.61
2019-04-06T06:21:17.203Z,9.64
2019-04-06T06:23:48.693Z,9.74
2019-04-06T06:26:17.973Z,9.80
2019-04-06T06:28:47.139Z,9.86
2019-04-06T06:31:16.298Z,9.88
2019-04-06T06:33:45.808Z,9.95
2019-04-06T06:36:17.103Z,9.95
2019-04-06T06:38:48.206Z,10.12
2019-04-06T06:41:17.777Z,9.96
2019-04-06T06:43:49.656Z,10.13
2019-04-06T06:46:21.577Z,10.24
2019-04-06T06:48:53.741Z,10.29
2019-04-06T06:51:26.607Z,10.19
2019-04-06T06:53:56.927Z,10.43
2019-04-06T06:56:26.637Z,10.48
2019-04-06T06:58:55.772Z,10.43
2019-04-06T07:01:24.848Z,10.75
2019-04-06T07:03:53.905Z,10.59
2019-04-06T07:06:25.764Z,10.91
2019-04-06T07:08:56.045Z,11.07
2019-04-06T07:11:25.122Z,11.13
2019-04-06T07:13:57.111Z,10.64
2019-04-06T07:16:27.886Z,11.11
2019-04-06T07:18:58.476Z,11.12
2019-04-06T07:21:27.596Z,11.31
2019-04-06T07:23:59.606Z,11.35
2019-04-06T07:26:30.706Z,11.49
2019-04-06T07:28:59.817Z,11.38
2019-04-06T07:31:29.300Z,11.38
2019-04-06T07:33:58.847Z,11.45
2019-04-06T07:36:27.941Z,11.33
2019-04-06T07:39:12.565Z,11.26
2019-04-06T07:41:42.940Z,11.59
2019-04-06T07:44:11.977Z,11.72
2019-04-06T07:46:41.061Z,11.76
2019-04-06T07:49:21.962Z,11.73
2019-04-06T07:51:59.382Z,11.67
2019-04-06T07:54:34.129Z,11.50
2019-04-06T07:57:04.446Z,11.58
2019-04-06T07:59:33.725Z,11.61
2019-04-06T08:02:07.101Z,11.79
2019-04-06T08:04:36.227Z,11.64
2019-04-06T08:07:08.393Z,11.88
2019-04-06T08:09:39.085Z,11.78
2019-04-06T08:12:08.163Z,11.41
2019-04-06T08:14:39.303Z,11.43
2019-04-06T08:17:10.285Z,11.36
2019-04-06T08:19:39.325Z,11.47
2019-04-06T08:22:09.516Z,11.72
2019-04-06T08:24:39.163Z,11.90
2019-04-06T08:27:08.187Z,11.58
2019-04-06T08:29:40.221Z,11.53
2019-04-06T08:32:11.495Z,11.69
2019-04-06T08:34:40.582Z,12.01
2019-04-06T08:37:09.736Z,12.08
2019-04-06T08:39:39.110Z,12.12
2019-04-06T08:42:08.312Z,11.58
2019-04-06T08:44:37.760Z,12.04
2019-04-06T08:47:07.112Z,12.24
2019-04-06T08:49:38.918Z,12.45
2019-04-06T08:52:11.767Z,12.78
2019-04-06T08:54:44.016Z,12.96
2019-04-06T08:57:16.625Z,13.02
2019-04-06T08:59:45.918Z,13.27
2019-04-06T09:02:15.021Z,13.39
2019-04-06T09:04:46.472Z,13.56
2019-04-06T09:07:15.559Z,13.71
2019-04-06T09:09:44.699Z,14.09
2019-04-06T09:12:14.334Z,13.86
2019-04-06T09:14:43.600Z,13.98
2019-04-06T09:17:12.963Z,14.14
2019-04-06T09:19:42.346Z,14.43
2019-04-06T09:22:11.607Z,14.41
2019-04-06T09:24:42.199Z,14.15
2019-04-06T09:27:11.731Z,14.40
2019-04-06T09:29:44.679Z,14.63
2019-04-06T09:32:16.944Z,14.46
2019-04-06T09:34:47.082Z,14.51
2019-04-06T09:37:16.206Z,15.01
2019-04-06T09:39:45.311Z,15.13
2019-04-06T09:42:17.613Z,15.15
2019-04-06T09:44:53.072Z,15.16
2019-04-06T09:47:28.963Z,15.44
2019-04-06T09:50:38.668Z,15.49
2019-04-06T09:53:26.649Z,15.81
2019-04-06T09:56:16.025Z,15.80
2019-04-06T09:59:06.828Z,15.77
2019-04-06T10:02:01.329Z,15.97
2019-04-06T10:04:49.329Z,16.09
2019-04-06T10:07:27.564Z,16.21
2019-04-06T10:10:30.713Z,16.22
2019-04-06T10:13:31.093Z,16.79
2019-04-06T10:16:06.552Z,16.99
2019-04-06T10:18:57.980Z,16.93
2019-04-06T10:21:47.371Z,17.27
2019-04-06T10:24:44.767Z,17.38
2019-04-06T10:27:29.518Z,17.41
2019-04-06T10:30:23.755Z,17.58
2019-04-06T10:32:59.078Z,18.06
2019-04-06T10:35:47.501Z,18.31
2019-04-06T10:38:53.716Z,18.44
2019-04-06T10:41:50.394Z,18.53
2019-04-06T10:44:36.769Z,18.68
2019-04-06T10:47:27.272Z,18.82
2019-04-06T10:50:15.285Z,19.42
2019-04-06T10:52:53.712Z,19.52
2019-04-06T10:55:54.024Z,19.83
2019-04-06T10:58:44.062Z,19.87
2019-04-06T11:01:25.017Z,20.01
2019-04-06T11:04:05.787Z,20.31
2019-04-06T11:06:44.459Z,20.34
2019-04-06T11:09:31.606Z,20.37
2019-04-06T11:12:31.285Z,20.69
2019-04-06T11:15:18.385Z,21.06
2019-04-06T11:18:21.585Z,21.15
2019-04-06T11:21:08.383Z,20.96
2019-04-06T11:24:05.177Z,21.19
2019-04-06T11:26:40.216Z,21.35
2019-04-06T11:29:14.891Z,21.35
2019-04-06T11:32:01.374Z,21.38
2019-04-06T11:34:48.168Z,21.12
2019-04-06T11:37:28.819Z,21.33
2019-04-06T11:40:23.443Z,20.91
2019-04-06T11:43:15.311Z,21.06
2019-04-06T11:46:15.370Z,20.66
2019-04-06T11:49:12.458Z,20.48
2019-04-06T11:51:59.374Z,20.39
2019-04-06T11:54:41.908Z,20.51
2019-04-06T11:57:32.975Z,20.43
2019-04-06T12:00:09.503Z,20.23
2019-04-06T12:03:00.890Z,20.15
2019-04-06T12:05:38.615Z,20.20
2019-04-06T12:08:15.939Z,19.63
2019-04-06T12:11:16.261Z,19.71
2019-04-06T12:14:23.235Z,19.92
2019-04-06T12:17:15.872Z,19.86
2019-04-06T12:20:07.013Z,19.31
2019-04-06T12:22:51.347Z,19.26
2019-04-06T12:25:34.265Z,19.56
2019-04-06T12:28:26.777Z,19.62
2019-04-06T12:31:11.962Z,19.57
2019-04-06T12:34:07.508Z,19.80
2019-04-06T12:36:42.822Z,19.87
2019-04-06T12:39:25.342Z,19.97
2019-04-06T12:42:25.992Z,20.02
2019-04-06T12:45:03.743Z,19.96
2019-04-06T12:47:49.975Z,19.97
2019-04-06T12:50:35.157Z,20.05
2019-04-06T12:53:22.011Z,20.07
2019-04-06T12:56:08.720Z,19.92
2019-04-06T12:58:46.614Z,19.68
2019-04-06T13:01:24.287Z,19.62
2019-04-06T13:04:30.835Z,19.60
2019-04-06T13:07:17.582Z,19.41
2019-04-06T13:10:06.143Z,19.54
2019-04-06T13:13:02.392Z,19.21
2019-04-06T13:16:00.342Z,19.30
2019-04-06T13:18:41.572Z,19.03
2019-04-06T13:21:29.040Z,18.92
2019-04-06T13:24:15.572Z,18.95
2019-04-06T13:27:02.803Z,18.88
2019-04-06T13:29:49.173Z,18.85
2019-04-06T13:32:33.138Z,18.43
2019-04-06T13:35:16.374Z,18.62
2019-04-06T13:38:10.987Z,18.48
2019-04-06T13:40:56.343Z,18.39
2019-04-06T13:43:53.216Z,18.56
2019-04-06T13:46:47.043Z,18.65
2019-04-06T13:49:34.272Z,18.76
2019-04-06T13:52:23.908Z,18.61
2019-04-06T13:55:12.338Z,18.79
2019-04-06T13:58:05.873Z,19.01
2019-04-06T14:01:16.925Z,18.91
2019-04-06T14:04:00.526Z,19.28
2019-04-06T14:06:54.815Z,20.23
2019-04-06T14:09:52.080Z,20.38
2019-04-06T14:12:58.387Z,20.98
2019-04-06T14:15:42.684Z,21.07
2019-04-06T14:18:29.238Z,21.06
2019-04-06T14:21:26.667Z,21.77
2019-04-06T14:24:24.482Z,23.24
2019-04-06T14:27:16.181Z,24.47
2019-04-06T14:30:02.654Z,25.31
2019-04-06T14:32:54.089Z,25.76
2019-04-06T14:35:32.386Z,25.94
2019-04-06T14:38:20.383Z,25.91
2019-04-06T14:41:04.677Z,25.32
2019-04-06T14:43:53.141Z,24.96
2019-04-06T14:46:34.696Z,24.41
2019-04-06T14:49:29.592Z,24.34
2019-04-06T14:52:09.769Z,23.88
2019-04-06T14:54:44.033Z,25.06
2019-04-06T14:57:38.796Z,26.26
2019-04-06T15:00:19.834Z,27.06
2019-04-06T15:03:06.240Z,28.19
2019-04-06T15:05:42.969Z,29.10
2019-04-06T15:08:43.180Z,29.98
2019-04-06T15:11:49.388Z,30.95
2019-04-06T15:14:32.744Z,31.53
2019-04-06T15:17:29.561Z,31.68
2019-04-06T15:20:18.182Z,31.42
2019-04-06T15:23:14.816Z,31.48
2019-04-06T15:26:07.847Z,31.40
2019-04-06T15:28:44.090Z,31.49
2019-04-06T15:31:51.775Z,31.57
2019-04-06T15:34:27.241Z,31.12
2019-04-06T15:37:13.188Z,31.23
2019-04-06T15:40:01.324Z,31.08
2019-04-06T15:42:52.673Z,30.99
2019-04-06T15:45:53.104Z,30.69
2019-04-06T15:48:53.450Z,30.34
2019-04-06T15:51:45.550Z,30.55
2019-04-06T15:54:38.088Z,30.27
2019-04-06T15:57:18.079Z,30.35
2019-04-06T16:00:05.560Z,29.95
2019-04-06T16:02:50.468Z,29.67
2019-04-06T16:05:40.933Z,28.99
2019-04-06T16:08:26.037Z,28.87
2019-04-06T16:11:29.238Z,28.59
2019-04-06T16:14:15.904Z,28.17
2019-04-06T16:16:52.671Z,27.66
2019-04-06T16:19:31.995Z,27.38
2019-04-06T16:22:32.524Z,27.11
2019-04-06T16:25:06.887Z,26.87
2019-04-06T16:27:55.340Z,26.54
2019-04-06T16:30:47.415Z,26.14
2019-04-06T16:33:25.742Z,25.61
2019-04-06T16:36:03.489Z,25.30
2019-04-06T16:38:52.450Z,25.07
2019-04-06T16:41:43.342Z,24.85
2019-04-06T16:44:34.498Z,24.61
2019-04-06T16:47:20.835Z,24.38
2019-04-06T16:50:08.161Z,24.09
2019-04-06T16:52:55.781Z,23.84
2019-04-06T16:55:40.147Z,23.64
2019-04-06T16:58:34.138Z,23.31
2019-04-06T17:01:21.681Z,23.05
2019-04-06T17:04:21.413Z,22.81
2019-04-06T17:07:17.862Z,22.55
2019-04-06T17:10:05.891Z,22.28
2019-04-06T17:13:00.600Z,22.01
2019-04-06T17:15:49.457Z,21.80
2019-04-06T17:18:37.674Z,21.51
2019-04-06T17:21:18.423Z,21.51
2019-04-06T17:24:10.195Z,21.23
2019-04-06T17:26:57.102Z,21.17
2019-04-06T17:30:00.756Z,21.01
2019-04-06T17:32:38.111Z,20.82
2019-04-06T17:35:26.647Z,20.72
2019-04-06T17:38:19.952Z,20.58
2019-04-06T17:41:23.846Z,20.33
2019-04-06T17:44:08.100Z,20.34
2019-04-06T17:47:12.106Z,20.29
2019-04-06T17:49:56.744Z,20.10
2019-04-06T17:53:00.047Z,19.93
2019-04-06T17:55:53.687Z,19.84
2019-04-06T17:58:39.779Z,19.78
2019-04-06T18:01:16.585Z,19.72
2019-04-06T18:04:13.836Z,19.70
2019-04-06T18:06:53.234Z,19.55
2019-04-06T18:09:58.402Z,19.37
2019-04-06T18:12:45.941Z,19.21
2019-04-06T18:15:15.452Z,19.27
2019-04-06T18:17:44.570Z,19.05
2019-04-06T18:20:15.158Z,19.08
2019-04-06T18:22:44.942Z,19.13
2019-04-06T18:25:15.729Z,19.11
2019-04-06T18:27:46.091Z,19.02
2019-04-06T18:30:15.766Z,19.05
2019-04-06T18:33:00.767Z,18.99
2019-04-06T18:35:24.626Z,18.94
2019-04-06T18:37:59.671Z,18.76
2019-04-06T18:40:29.521Z,18.79
2019-04-06T18:42:58.924Z,18.84
2019-04-06T18:45:31.325Z,18.54
2019-04-06T18:48:00.921Z,18.62
2019-04-06T18:50:36.071Z,18.65
2019-04-06T18:53:03.626Z,18.61
2019-04-06T18:55:37.927Z,18.59
2019-04-06T18:58:12.699Z,18.54
2019-04-06T19:00:43.623Z,18.51
2019-04-06T19:03:16.733Z,18.52
2019-04-06T19:05:46.261Z,18.58
2019-04-06T19:08:16.838Z,18.56
2019-04-06T19:10:47.688Z,18.60
2019-04-06T19:13:16.823Z,18.50
2019-04-06T19:15:46.864Z,18.44
2019-04-06T19:18:19.234Z,18.40
2019-04-06T19:20:53.783Z,18.27
2019-04-06T19:23:24.124Z,18.43
2019-04-06T19:25:55.670Z,18.50
2019-04-06T19:28:25.069Z,18.49
2019-04-06T19:31:00.206Z,18.53
2019-04-06T19:33:29.441Z,18.40
2019-04-06T19:35:58.802Z,18.47
2019-04-06T19:38:28.228Z,18.51
2019-04-06T19:41:00.935Z,18.46
2019-04-06T19:43:30.184Z,18.49
2019-04-06T19:48:23.860Z,18.53
2019-04-06T19:50:53.247Z,18.34
2019-04-06T19:53:22.905Z,18.38
2019-04-06T19:55:52.092Z,18.31
2019-04-06T19:58:23.686Z,18.39
2019-04-06T20:00:54.204Z,18.31
2019-04-06T20:03:34.066Z,18.29
2019-04-06T20:05:54.873Z,18.30
2019-04-06T20:08:25.420Z,18.29
2019-04-06T20:10:55.388Z,18.22
2019-04-06T20:13:28.597Z,18.14
2019-04-06T20:15:57.744Z,18.18
2019-04-06T20:18:26.869Z,18.09
2019-04-06T20:20:56.472Z,18.15
2019-04-06T20:23:27.009Z,18.07
2019-04-06T20:25:56.583Z,18.09
2019-04-06T20:28:25.764Z,18.09
2019-04-06T20:30:55.764Z,18.11
2019-04-06T20:33:24.916Z,18.11
2019-04-06T20:35:54.492Z,18.06
2019-04-06T20:38:24.650Z,18.06
2019-04-06T20:40:53.885Z,17.98
2019-04-06T20:43:22.972Z,18.04
2019-04-06T20:45:52.585Z,18.05
2019-04-06T20:48:21.904Z,18.00
2019-04-06T20:50:50.985Z,18.02
2019-04-06T20:53:22.697Z,18.08
2019-04-06T20:55:51.976Z,18.12
2019-04-06T20:58:21.073Z,18.13
2019-04-06T21:00:50.599Z,18.18
2019-04-06T21:03:20.734Z,18.08
2019-04-06T21:05:49.841Z,18.13
2019-04-06T21:08:21.129Z,18.05
2019-04-06T21:10:50.225Z,18.16
2019-04-06T21:13:20.080Z,18.13
2019-04-06T21:15:49.899Z,18.11
2019-04-06T21:18:18.979Z,18.00
2019-04-06T21:20:48.127Z,18.02
2019-04-06T21:23:18.414Z,18.08
2019-04-06T21:25:47.833Z,18.11
2019-04-06T21:28:18.209Z,18.13
2019-04-06T21:30:47.929Z,18.08
2019-04-06T21:33:17.136Z,18.05
2019-04-06T21:35:47.504Z,17.89
2019-04-06T21:38:17.116Z,17.79
2019-04-06T21:40:46.699Z,17.81
2019-04-06T21:43:15.858Z,17.89
2019-04-06T21:45:45.805Z,17.89
2019-04-06T21:48:14.930Z,17.85
2019-04-06T21:50:44.031Z,17.81
2019-04-06T21:53:13.737Z,17.84
2019-04-06T21:55:43.491Z,17.72
2019-04-06T21:58:13.043Z,17.55
2019-04-06T22:00:50.461Z,17.68
2019-04-06T22:03:19.983Z,17.61
2019-04-06T22:05:50.488Z,17.63
2019-04-06T22:08:20.424Z,17.54
2019-04-06T22:10:50.031Z,17.52
2019-04-06T22:13:19.537Z,17.51
2019-04-06T22:15:49.195Z,17.58
2019-04-06T22:18:18.269Z,17.58
2019-04-06T22:20:47.344Z,17.56
2019-04-06T22:23:16.820Z,17.51
2019-04-06T22:25:45.983Z,17.48
2019-04-06T22:28:15.307Z,17.37
2019-04-06T22:30:45.025Z,17.31
2019-04-06T22:33:14.065Z,17.32
2019-04-06T22:35:43.273Z,17.25
2019-04-06T22:38:12.848Z,17.22
2019-04-06T22:40:41.940Z,17.20
2019-04-06T22:43:10.963Z,17.16
2019-04-06T22:45:40.611Z,17.05
2019-04-06T22:48:09.608Z,17.01
2019-04-06T22:50:39.248Z,17.01
2019-04-06T22:53:08.803Z,16.98
2019-04-06T22:55:38.050Z,16.90
2019-04-06T22:58:07.093Z,16.83
2019-04-06T23:00:44.283Z,16.77
2019-04-06T23:03:30.802Z,16.73
2019-04-06T23:06:04.318Z,16.74
2019-04-06T23:08:33.864Z,16.73
2019-04-06T23:11:03.508Z,16.74
2019-04-06T23:13:32.592Z,16.70
2019-04-06T23:16:05.858Z,16.70
2019-04-06T23:18:34.892Z,16.67
2019-04-06T23:21:04.080Z,16.68
2019-04-06T23:23:34.147Z,16.67
2019-04-06T23:26:04.314Z,16.63
2019-04-06T23:28:33.396Z,16.59
2019-04-06T23:31:02.761Z,16.51
2019-04-06T23:33:31.809Z,16.29
2019-04-06T23:36:01.164Z,15.92
2019-04-06T23:38:30.584Z,16.11
2019-04-06T23:41:00.239Z,16.15
2019-04-06T23:43:29.594Z,15.91
2019-04-06T23:45:59.119Z,16.11
2019-04-06T23:48:28.209Z,16.17
2019-04-06T23:50:57.440Z,16.16
2019-04-06T23:53:26.845Z,16.16
2019-04-06T23:55:55.899Z,16.14
2019-04-06T23:58:25.005Z,16.15
